createdAt,value
2017-12-27T00:02:29.903Z," 5.62"
2017-12-27T00:07:25.892Z," 5.53"
2017-12-27T00:12:21.699Z," 5.68"
2017-12-27T00:17:17.395Z," 5.64"
2017-12-27T00:22:14.017Z," 5.46"
2017-12-27T00:27:09.896Z," 5.62"
2017-12-27T00:32:05.655Z," 5.53"
2017-12-27T00:37:01.413Z," 5.50"
2017-12-27T00:41:57.905Z," 5.57"
2017-12-27T00:46:54.893Z," 5.68"
2017-12-27T00:51:50.508Z," 5.64"
2017-12-27T00:56:46.156Z," 5.65"
2017-12-27T01:01:42.537Z," 5.71"
2017-12-27T01:06:39.134Z," 5.59"
2017-12-27T01:11:35.022Z," 5.71"
2017-12-27T01:16:30.470Z," 5.68"
2017-12-27T01:21:26.183Z," 5.71"
2017-12-27T01:26:21.930Z," 5.62"
2017-12-27T01:31:18.749Z," 5.68"
2017-12-27T01:36:14.243Z," 5.73"
2017-12-27T01:41:10.846Z," 5.69"
2017-12-27T01:46:06.949Z," 5.64"
2017-12-27T01:51:02.413Z," 5.69"
2017-12-27T01:55:59.146Z," 5.54"
2017-12-27T02:00:55.494Z," 5.59"
2017-12-27T02:05:50.846Z," 5.54"
2017-12-27T02:10:47.882Z," 5.57"
2017-12-27T02:15:44.686Z," 5.64"
2017-12-27T02:20:40.133Z," 5.68"
2017-12-27T02:25:36.833Z," 5.66"
2017-12-27T02:30:31.942Z," 5.68"
2017-12-27T02:35:29.194Z," 5.71"
2017-12-27T02:40:25.257Z," 5.71"
2017-12-27T02:45:20.962Z," 5.79"
2017-12-27T02:50:17.617Z," 5.82"
2017-12-27T02:55:12.628Z," 5.90"
2017-12-27T03:00:08.766Z," 5.89"
2017-12-27T03:05:04.498Z," 5.91"
2017-12-27T03:10:00.136Z," 5.99"
2017-12-27T03:14:55.965Z," 6.08"
2017-12-27T03:19:51.722Z," 6.26"
2017-12-27T03:24:47.606Z," 6.26"
2017-12-27T03:29:43.812Z," 6.22"
2017-12-27T03:34:39.801Z," 6.27"
2017-12-27T03:39:35.460Z," 6.30"
2017-12-27T03:44:31.222Z," 6.28"
2017-12-27T03:49:26.892Z," 6.35"
2017-12-27T03:54:22.599Z," 6.36"
2017-12-27T03:59:19.324Z," 6.33"
2017-12-27T04:04:15.581Z," 6.33"
2017-12-27T04:09:12.463Z," 6.20"
2017-12-27T04:14:08.894Z," 6.38"
2017-12-27T04:19:05.429Z," 6.33"
2017-12-27T04:24:02.780Z," 6.44"
2017-12-27T04:28:58.286Z," 6.39"
2017-12-27T04:33:53.808Z," 6.45"
2017-12-27T04:38:49.855Z," 6.48"
2017-12-27T04:43:45.719Z," 6.52"
2017-12-27T04:48:41.461Z," 6.54"
2017-12-27T04:53:38.155Z," 6.54"
2017-12-27T04:58:33.710Z," 6.56"
2017-12-27T05:03:30.531Z," 6.46"
2017-12-27T05:08:26.116Z," 6.45"
2017-12-27T05:13:22.716Z," 6.49"
2017-12-27T05:18:18.302Z," 6.56"
2017-12-27T05:23:14.124Z," 6.49"
2017-12-27T05:28:10.051Z," 6.56"
2017-12-27T05:33:05.873Z," 6.63"
2017-12-27T05:38:01.814Z," 6.64"
2017-12-27T05:42:57.538Z," 6.63"
2017-12-27T05:47:54.326Z," 6.54"
2017-12-27T05:52:49.499Z," 6.57"
2017-12-27T05:57:45.718Z," 6.67"
2017-12-27T06:02:41.452Z," 6.69"
2017-12-27T06:07:37.256Z," 6.69"
2017-12-27T06:12:33.017Z," 6.69"
2017-12-27T06:17:29.584Z," 6.78"
2017-12-27T06:22:25.264Z," 6.69"
2017-12-27T06:27:21.052Z," 6.70"
2017-12-27T06:32:16.918Z," 6.81"
2017-12-27T06:37:12.786Z," 6.67"
2017-12-27T06:42:10.380Z," 6.72"
2017-12-27T06:47:05.423Z," 6.49"
2017-12-27T06:52:00.989Z," 6.59"
2017-12-27T06:56:57.581Z," 6.48"
2017-12-27T07:01:53.633Z," 6.44"
2017-12-27T07:06:51.396Z," 6.51"
2017-12-27T07:11:46.557Z," 6.48"
2017-12-27T07:16:42.297Z," 6.42"
2017-12-27T07:21:38.916Z," 6.49"
2017-12-27T07:26:35.251Z," 6.48"
2017-12-27T07:31:31.416Z," 6.44"
2017-12-27T07:36:27.010Z," 6.49"
2017-12-27T07:41:23.860Z," 6.49"
2017-12-27T07:46:19.310Z," 6.56"
2017-12-27T07:51:16.057Z," 6.66"
2017-12-27T07:56:11.665Z," 6.67"
2017-12-27T08:01:07.468Z," 6.57"
2017-12-27T08:06:04.046Z," 6.49"
2017-12-27T08:10:59.606Z," 6.45"
2017-12-27T08:15:56.235Z," 6.41"
2017-12-27T08:20:52.722Z," 6.38"
2017-12-27T08:25:48.142Z," 6.24"
2017-12-27T08:30:43.637Z," 6.35"
2017-12-27T08:35:39.602Z," 6.30"
2017-12-27T08:40:36.328Z," 6.38"
2017-12-27T08:45:32.899Z," 6.31"
2017-12-27T08:50:28.609Z," 6.33"
2017-12-27T08:55:24.243Z," 6.39"
2017-12-27T09:00:20.006Z," 6.35"
2017-12-27T09:05:16.833Z," 6.44"
2017-12-27T09:10:13.343Z," 6.44"
2017-12-27T09:15:08.756Z," 6.49"
2017-12-27T09:20:04.439Z," 6.48"
2017-12-27T09:24:59.911Z," 6.48"
2017-12-27T09:29:56.643Z," 6.46"
2017-12-27T09:34:52.169Z," 6.49"
2017-12-27T09:39:49.864Z," 6.54"
2017-12-27T09:44:45.806Z," 6.56"
2017-12-27T09:49:41.616Z," 6.48"
2017-12-27T09:54:36.984Z," 6.48"
2017-12-27T09:59:32.697Z," 6.46"
2017-12-27T10:04:29.502Z," 6.63"
2017-12-27T10:09:24.782Z," 6.62"
2017-12-27T10:14:20.370Z," 6.62"
2017-12-27T10:19:16.249Z," 6.63"
2017-12-27T10:24:11.898Z," 6.67"
2017-12-27T10:29:08.648Z," 6.70"
2017-12-27T10:34:04.727Z," 6.79"
2017-12-27T10:39:01.701Z," 6.92"
2017-12-27T10:43:57.379Z," 6.93"
2017-12-27T10:48:53.223Z," 6.99"
2017-12-27T10:53:50.077Z," 7.00"
2017-12-27T10:58:45.438Z," 6.95"
2017-12-27T11:03:41.088Z," 6.89"
2017-12-27T11:08:36.902Z," 6.89"
2017-12-27T11:13:32.567Z," 7.03"
2017-12-27T11:18:28.506Z," 6.99"
2017-12-27T11:23:24.347Z," 6.97"
2017-12-27T11:28:21.203Z," 7.03"
2017-12-27T11:33:16.557Z," 7.00"
2017-12-27T11:38:12.272Z," 6.97"
2017-12-27T11:43:08.060Z," 6.95"
2017-12-27T11:48:04.427Z," 7.06"
2017-12-27T11:53:00.376Z," 6.99"
2017-12-27T11:57:56.235Z," 6.96"
2017-12-27T12:02:51.768Z," 6.89"
2017-12-27T12:07:47.598Z," 6.87"
2017-12-27T12:12:43.682Z," 6.95"
2017-12-27T12:17:39.454Z," 6.88"
2017-12-27T12:22:35.078Z," 6.88"
2017-12-27T12:27:31.414Z," 6.95"
2017-12-27T12:32:28.127Z," 6.93"
2017-12-27T12:37:23.489Z," 6.96"
2017-12-27T12:42:19.083Z," 7.00"
2017-12-27T12:47:16.952Z," 7.00"
2017-12-27T12:52:11.725Z," 7.05"
2017-12-27T12:57:07.368Z," 7.06"
2017-12-27T13:02:03.942Z," 7.10"
2017-12-27T13:06:59.540Z," 7.17"
2017-12-27T13:11:54.826Z," 7.11"
2017-12-27T13:16:50.668Z," 7.21"
2017-12-27T13:21:47.472Z," 7.23"
2017-12-27T13:26:43.161Z," 7.24"
2017-12-27T13:31:38.999Z," 7.31"
2017-12-27T13:36:34.782Z," 7.32"
2017-12-27T13:41:30.747Z," 7.42"
2017-12-27T13:46:27.405Z," 7.31"
2017-12-27T13:51:22.513Z," 7.39"
2017-12-27T13:56:19.333Z," 7.39"
2017-12-27T14:01:14.833Z," 7.40"
2017-12-27T14:06:10.675Z," 7.40"
2017-12-27T14:11:06.273Z," 7.38"
2017-12-27T14:16:03.077Z," 7.48"
2017-12-27T14:20:58.566Z," 7.48"
2017-12-27T14:25:54.550Z," 7.53"
2017-12-27T14:30:51.535Z," 7.58"
2017-12-27T14:35:47.053Z," 7.54"
2017-12-27T14:40:42.436Z," 7.58"
2017-12-27T14:45:39.162Z," 7.66"
2017-12-27T14:50:35.850Z," 7.66"
2017-12-27T14:55:31.193Z," 7.60"
2017-12-27T15:00:27.272Z," 7.54"
2017-12-27T15:05:22.784Z," 7.61"
2017-12-27T15:10:18.502Z," 7.60"
2017-12-27T15:15:15.168Z," 7.53"
2017-12-27T15:20:10.762Z," 7.50"
2017-12-27T15:25:08.172Z," 7.56"
2017-12-27T15:30:03.713Z," 7.60"
2017-12-27T15:34:59.616Z," 7.53"
2017-12-27T15:39:55.860Z," 7.48"
2017-12-27T15:44:51.646Z," 7.48"
2017-12-27T15:49:47.237Z," 7.45"
2017-12-27T15:54:42.932Z," 7.51"
2017-12-27T15:59:38.864Z," 7.47"
2017-12-27T16:04:34.526Z," 7.56"
2017-12-27T16:09:30.452Z," 7.51"
2017-12-27T16:14:29.029Z," 7.39"
2017-12-27T16:19:25.268Z," 7.43"
2017-12-27T16:24:20.978Z," 7.38"
2017-12-27T16:29:16.812Z," 7.38"
2017-12-27T16:34:13.324Z," 7.31"
2017-12-27T16:39:08.947Z," 7.29"
2017-12-27T16:44:05.398Z," 7.23"
2017-12-27T16:49:01.589Z," 7.28"
2017-12-27T16:53:57.603Z," 7.20"
2017-12-27T16:58:53.280Z," 7.18"
2017-12-27T17:03:48.763Z," 7.00"
2017-12-27T17:08:45.305Z," 7.02"
2017-12-27T17:13:41.338Z," 6.97"
2017-12-27T17:18:37.198Z," 7.02"
2017-12-27T17:23:33.947Z," 7.05"
2017-12-27T17:28:29.440Z," 7.00"
2017-12-27T17:33:26.889Z," 6.89"
2017-12-27T17:38:24.106Z," 6.93"
2017-12-27T17:43:19.620Z," 6.85"
2017-12-27T17:48:15.947Z," 6.77"
2017-12-27T17:53:11.363Z," 6.54"
2017-12-27T17:58:06.914Z," 6.45"
2017-12-27T18:03:02.687Z," 6.38"
2017-12-27T18:07:58.416Z," 6.46"
2017-12-27T18:12:54.341Z," 6.36"
2017-12-27T18:17:50.275Z," 6.36"
2017-12-27T18:22:47.599Z," 6.41"
2017-12-27T18:27:44.074Z," 6.33"
2017-12-27T18:32:39.531Z," 6.41"
2017-12-27T18:37:35.174Z," 6.45"
2017-12-27T18:42:31.051Z," 6.51"
2017-12-27T18:47:26.374Z," 6.56"
2017-12-27T18:52:22.083Z," 6.48"
2017-12-27T18:57:18.065Z," 6.38"
2017-12-27T19:02:13.623Z," 6.27"
2017-12-27T19:07:10.301Z," 6.27"
2017-12-27T19:12:05.724Z," 6.19"
2017-12-27T19:17:02.294Z," 6.14"
2017-12-27T19:21:57.882Z," 6.04"
2017-12-27T19:26:54.479Z," 6.09"
2017-12-27T19:31:50.543Z," 5.99"
2017-12-27T19:36:45.992Z," 5.98"
2017-12-27T19:41:42.865Z," 5.98"
2017-12-27T19:46:39.673Z," 5.93"
2017-12-27T19:51:35.898Z," 5.94"
2017-12-27T19:56:31.906Z," 5.84"
2017-12-27T20:01:27.320Z," 5.89"
2017-12-27T20:06:22.953Z," 5.72"
2017-12-27T20:11:19.599Z," 5.79"
2017-12-27T20:16:15.048Z," 5.87"
2017-12-27T20:21:10.900Z," 6.01"
2017-12-27T20:26:06.951Z," 6.02"
2017-12-27T20:31:03.216Z," 6.12"
2017-12-27T20:35:58.915Z," 6.27"
2017-12-27T20:40:54.671Z," 6.26"
2017-12-27T20:45:51.653Z," 6.22"
2017-12-27T20:50:47.172Z," 6.30"
2017-12-27T20:55:42.920Z," 6.36"
2017-12-27T21:00:38.700Z," 6.45"
2017-12-27T21:05:35.284Z," 6.45"
2017-12-27T21:10:31.044Z," 6.60"
2017-12-27T21:15:26.749Z," 6.52"
2017-12-27T21:20:22.488Z," 6.49"
2017-12-27T21:25:18.141Z," 6.54"
2017-12-27T21:30:13.853Z," 6.56"
2017-12-27T21:35:09.737Z," 6.46"
2017-12-27T21:40:05.416Z," 6.42"
2017-12-27T21:45:01.119Z," 6.33"
2017-12-27T21:49:56.704Z," 6.38"
2017-12-27T21:54:52.488Z," 6.26"
2017-12-27T21:59:48.211Z," 6.24"
2017-12-27T22:04:43.989Z," 6.26"
2017-12-27T22:09:39.739Z," 6.20"
2017-12-27T22:14:35.229Z," 6.14"
2017-12-27T22:19:30.971Z," 6.11"
2017-12-27T22:24:27.079Z," 6.01"
2017-12-27T22:29:22.929Z," 6.16"
2017-12-27T22:34:19.673Z," 6.12"
2017-12-27T22:39:15.287Z," 6.24"
2017-12-27T22:44:12.202Z," 6.26"
2017-12-27T22:49:08.601Z," 6.28"
2017-12-27T22:54:04.133Z," 6.11"
2017-12-27T22:58:59.800Z," 6.08"
2017-12-27T23:03:55.599Z," 5.99"
2017-12-27T23:08:51.468Z," 5.80"
2017-12-27T23:13:46.789Z," 5.44"
2017-12-27T23:18:42.317Z," 5.23"
2017-12-27T23:23:38.272Z," 5.21"
2017-12-27T23:28:33.524Z," 5.08"
2017-12-27T23:33:29.333Z," 5.21"
2017-12-27T23:38:25.073Z," 5.11"
2017-12-27T23:43:21.900Z," 5.14"
2017-12-27T23:48:17.383Z," 5.20"
2017-12-27T23:53:14.147Z," 5.23"
2017-12-27T23:58:09.618Z," 5.21"
